sensor_id;sensor_type;location;lat;lon;timestamp;temperature;humidity
52973;DHT22;38837;48.916;2.336;2024-03-07T00:00:18;24.60;31.80
52973;DHT22;38837;48.916;2.336;2024-03-07T00:02:20;24.60;31.70
52973;DHT22;38837;48.916;2.336;2024-03-07T00:04:23;24.80;31.60
52973;DHT22;38837;48.916;2.336;2024-03-07T00:06:26;24.80;31.50
52973;DHT22;38837;48.916;2.336;2024-03-07T00:08:28;24.80;31.50
52973;DHT22;38837;48.916;2.336;2024-03-07T00:10:32;24.80;31.50
52973;DHT22;38837;48.916;2.336;2024-03-07T00:12:34;24.80;31.60
52973;DHT22;38837;48.916;2.336;2024-03-07T00:14:37;24.70;31.50
52973;DHT22;38837;48.916;2.336;2024-03-07T00:16:38;24.60;31.70
52973;DHT22;38837;48.916;2.336;2024-03-07T00:18:41;24.60;31.70
52973;DHT22;38837;48.916;2.336;2024-03-07T00:20:43;24.50;31.80
52973;DHT22;38837;48.916;2.336;2024-03-07T00:22:45;24.60;31.80
52973;DHT22;38837;48.916;2.336;2024-03-07T00:24:47;24.60;32.20
52973;DHT22;38837;48.916;2.336;2024-03-07T00:26:49;24.70;31.70
52973;DHT22;38837;48.916;2.336;2024-03-07T00:28:52;24.80;31.60
52973;DHT22;38837;48.916;2.336;2024-03-07T00:30:54;24.80;31.50
52973;DHT22;38837;48.916;2.336;2024-03-07T00:32:57;24.70;31.50
52973;DHT22;38837;48.916;2.336;2024-03-07T00:34:59;24.60;31.50
52973;DHT22;38837;48.916;2.336;2024-03-07T00:37:01;24.60;31.50
52973;DHT22;38837;48.916;2.336;2024-03-07T00:39:04;24.60;31.60
52973;DHT22;38837;48.916;2.336;2024-03-07T00:41:06;24.50;31.70
52973;DHT22;38837;48.916;2.336;2024-03-07T00:43:12;24.50;31.80
52973;DHT22;38837;48.916;2.336;2024-03-07T00:45:15;24.50;31.80
52973;DHT22;38837;48.916;2.336;2024-03-07T00:47:22;24.50;31.80
52973;DHT22;38837;48.916;2.336;2024-03-07T00:49:24;24.60;31.80
52973;DHT22;38837;48.916;2.336;2024-03-07T00:51:27;24.60;31.70
52973;DHT22;38837;48.916;2.336;2024-03-07T00:53:31;24.70;31.60
52973;DHT22;38837;48.916;2.336;2024-03-07T00:55:33;24.70;31.50
52973;DHT22;38837;48.916;2.336;2024-03-07T00:57:35;24.70;31.40
52973;DHT22;38837;48.916;2.336;2024-03-07T00:59:37;24.70;31.40
52973;DHT22;38837;48.916;2.336;2024-03-07T01:01:39;24.60;31.40
52973;DHT22;38837;48.916;2.336;2024-03-07T01:03:43;24.60;31.50
52973;DHT22;38837;48.916;2.336;2024-03-07T01:05:46;24.50;31.60
52973;DHT22;38837;48.916;2.336;2024-03-07T01:07:47;24.50;31.70
52973;DHT22;38837;48.916;2.336;2024-03-07T01:09:49;24.50;31.70
52973;DHT22;38837;48.916;2.336;2024-03-07T01:11:52;24.60;31.70
52973;DHT22;38837;48.916;2.336;2024-03-07T01:13:54;24.60;31.60
52973;DHT22;38837;48.916;2.336;2024-03-07T01:15:57;24.60;31.50
52973;DHT22;38837;48.916;2.336;2024-03-07T01:17:59;24.70;31.50
52973;DHT22;38837;48.916;2.336;2024-03-07T01:20:01;24.70;31.40
52973;DHT22;38837;48.916;2.336;2024-03-07T01:22:03;24.70;31.40
52973;DHT22;38837;48.916;2.336;2024-03-07T01:24:05;24.70;31.40
52973;DHT22;38837;48.916;2.336;2024-03-07T01:26:07;24.80;31.50
52973;DHT22;38837;48.916;2.336;2024-03-07T01:28:10;24.60;31.50
52973;DHT22;38837;48.916;2.336;2024-03-07T01:30:14;24.60;31.60
52973;DHT22;38837;48.916;2.336;2024-03-07T01:32:17;24.60;31.70
52973;DHT22;38837;48.916;2.336;2024-03-07T01:34:19;24.50;31.60
52973;DHT22;38837;48.916;2.336;2024-03-07T01:36:21;24.60;31.70
52973;DHT22;38837;48.916;2.336;2024-03-07T01:38:23;24.60;31.60
52973;DHT22;38837;48.916;2.336;2024-03-07T01:40:25;24.70;31.50
52973;DHT22;38837;48.916;2.336;2024-03-07T01:42:27;24.80;31.40
52973;DHT22;38837;48.916;2.336;2024-03-07T01:44:28;24.80;31.40
52973;DHT22;38837;48.916;2.336;2024-03-07T01:46:32;24.70;31.40
52973;DHT22;38837;48.916;2.336;2024-03-07T01:48:34;24.60;31.30
52973;DHT22;38837;48.916;2.336;2024-03-07T01:50:37;24.60;31.40
52973;DHT22;38837;48.916;2.336;2024-03-07T01:52:40;24.60;31.50
52973;DHT22;38837;48.916;2.336;2024-03-07T01:54:42;24.50;31.50
52973;DHT22;38837;48.916;2.336;2024-03-07T01:56:44;24.50;31.60
52973;DHT22;38837;48.916;2.336;2024-03-07T01:58:49;24.50;31.60
52973;DHT22;38837;48.916;2.336;2024-03-07T02:00:53;24.60;31.60
52973;DHT22;38837;48.916;2.336;2024-03-07T02:02:55;24.60;31.50
52973;DHT22;38837;48.916;2.336;2024-03-07T02:04:57;24.70;31.40
52973;DHT22;38837;48.916;2.336;2024-03-07T02:06:59;24.70;31.30
52973;DHT22;38837;48.916;2.336;2024-03-07T02:09:01;24.70;31.30
52973;DHT22;38837;48.916;2.336;2024-03-07T02:11:04;24.70;31.30
52973;DHT22;38837;48.916;2.336;2024-03-07T02:13:06;24.60;31.30
52973;DHT22;38837;48.916;2.336;2024-03-07T02:15:08;24.60;31.40
52973;DHT22;38837;48.916;2.336;2024-03-07T02:17:10;24.50;31.50
52973;DHT22;38837;48.916;2.336;2024-03-07T02:19:14;24.50;31.50
52973;DHT22;38837;48.916;2.336;2024-03-07T02:21:17;24.50;31.50
52973;DHT22;38837;48.916;2.336;2024-03-07T02:23:19;24.50;31.50
52973;DHT22;38837;48.916;2.336;2024-03-07T02:25:21;24.60;31.50
52973;DHT22;38837;48.916;2.336;2024-03-07T02:27:23;24.60;31.40
52973;DHT22;38837;48.916;2.336;2024-03-07T02:29:25;24.70;31.30
52973;DHT22;38837;48.916;2.336;2024-03-07T02:31:27;24.70;31.30
52973;DHT22;38837;48.916;2.336;2024-03-07T02:33:36;24.70;31.30
52973;DHT22;38837;48.916;2.336;2024-03-07T02:35:38;24.60;31.30
52973;DHT22;38837;48.916;2.336;2024-03-07T02:37:40;24.50;31.40
52973;DHT22;38837;48.916;2.336;2024-03-07T02:39:42;24.50;31.40
52973;DHT22;38837;48.916;2.336;2024-03-07T02:41:44;24.50;31.50
52973;DHT22;38837;48.916;2.336;2024-03-07T02:43:46;24.50;31.60
52973;DHT22;38837;48.916;2.336;2024-03-07T02:45:48;24.50;31.60
52973;DHT22;38837;48.916;2.336;2024-03-07T02:47:51;24.50;31.50
52973;DHT22;38837;48.916;2.336;2024-03-07T02:49:55;24.60;31.40
52973;DHT22;38837;48.916;2.336;2024-03-07T02:51:57;24.60;31.30
52973;DHT22;38837;48.916;2.336;2024-03-07T02:53:59;24.70;31.20
52973;DHT22;38837;48.916;2.336;2024-03-07T02:56:01;24.60;31.20
52973;DHT22;38837;48.916;2.336;2024-03-07T02:58:03;24.60;31.20
52973;DHT22;38837;48.916;2.336;2024-03-07T03:00:06;24.60;31.30
52973;DHT22;38837;48.916;2.336;2024-03-07T03:02:20;24.50;31.30
52973;DHT22;38837;48.916;2.336;2024-03-07T03:04:22;24.50;31.40
52973;DHT22;38837;48.916;2.336;2024-03-07T03:06:24;24.50;31.50
52973;DHT22;38837;48.916;2.336;2024-03-07T03:08:26;24.50;31.50
52973;DHT22;38837;48.916;2.336;2024-03-07T03:10:31;24.50;31.50
52973;DHT22;38837;48.916;2.336;2024-03-07T03:12:33;24.50;31.40
52973;DHT22;38837;48.916;2.336;2024-03-07T03:14:35;24.60;31.30
52973;DHT22;38837;48.916;2.336;2024-03-07T03:16:36;24.70;31.30
52973;DHT22;38837;48.916;2.336;2024-03-07T03:18:49;24.70;31.20
52973;DHT22;38837;48.916;2.336;2024-03-07T03:20:51;24.60;31.10
52973;DHT22;38837;48.916;2.336;2024-03-07T03:22:54;24.60;31.20
52973;DHT22;38837;48.916;2.336;2024-03-07T03:25:16;24.60;31.20
52973;DHT22;38837;48.916;2.336;2024-03-07T03:27:19;24.50;31.30
52973;DHT22;38837;48.916;2.336;2024-03-07T03:29:21;24.50;31.40
52973;DHT22;38837;48.916;2.336;2024-03-07T03:31:23;24.50;31.50
52973;DHT22;38837;48.916;2.336;2024-03-07T03:33:24;24.50;31.40
52973;DHT22;38837;48.916;2.336;2024-03-07T03:35:27;24.50;31.40
52973;DHT22;38837;48.916;2.336;2024-03-07T03:37:28;24.60;31.30
52973;DHT22;38837;48.916;2.336;2024-03-07T03:39:31;24.60;31.20
52973;DHT22;38837;48.916;2.336;2024-03-07T03:41:33;24.60;31.20
52973;DHT22;38837;48.916;2.336;2024-03-07T03:43:35;24.60;31.10
52973;DHT22;38837;48.916;2.336;2024-03-07T03:45:37;24.60;31.10
52973;DHT22;38837;48.916;2.336;2024-03-07T03:47:39;24.50;31.10
52973;DHT22;38837;48.916;2.336;2024-03-07T03:49:41;24.50;31.30
52973;DHT22;38837;48.916;2.336;2024-03-07T03:51:43;24.40;31.40
52973;DHT22;38837;48.916;2.336;2024-03-07T03:53:48;24.40;31.40
52973;DHT22;38837;48.916;2.336;2024-03-07T03:55:51;24.40;31.40
52973;DHT22;38837;48.916;2.336;2024-03-07T03:57:52;24.50;31.40
52973;DHT22;38837;48.916;2.336;2024-03-07T03:59:55;24.50;31.30
52973;DHT22;38837;48.916;2.336;2024-03-07T04:01:57;24.60;31.20
52973;DHT22;38837;48.916;2.336;2024-03-07T04:04:01;24.60;31.10
52973;DHT22;38837;48.916;2.336;2024-03-07T04:06:03;24.60;31.10
52973;DHT22;38837;48.916;2.336;2024-03-07T04:08:06;24.60;31.00
52973;DHT22;38837;48.916;2.336;2024-03-07T04:10:10;24.50;31.00
52973;DHT22;38837;48.916;2.336;2024-03-07T04:12:13;24.50;31.20
52973;DHT22;38837;48.916;2.336;2024-03-07T04:14:15;24.40;31.20
52973;DHT22;38837;48.916;2.336;2024-03-07T04:16:17;24.40;31.30
52973;DHT22;38837;48.916;2.336;2024-03-07T04:18:19;24.40;31.40
52973;DHT22;38837;48.916;2.336;2024-03-07T04:20:21;24.40;31.30
52973;DHT22;38837;48.916;2.336;2024-03-07T04:22:24;24.50;31.30
52973;DHT22;38837;48.916;2.336;2024-03-07T04:24:26;24.50;31.20
52973;DHT22;38837;48.916;2.336;2024-03-07T04:26:28;24.60;31.10
52973;DHT22;38837;48.916;2.336;2024-03-07T04:28:30;24.60;31.00
52973;DHT22;38837;48.916;2.336;2024-03-07T04:30:32;24.60;31.00
52973;DHT22;38837;48.916;2.336;2024-03-07T04:32:34;24.60;31.00
52973;DHT22;38837;48.916;2.336;2024-03-07T04:34:36;24.50;31.00
52973;DHT22;38837;48.916;2.336;2024-03-07T04:36:38;24.40;31.00
52973;DHT22;38837;48.916;2.336;2024-03-07T04:38:40;24.30;31.10
52973;DHT22;38837;48.916;2.336;2024-03-07T04:40:46;24.30;31.20
52973;DHT22;38837;48.916;2.336;2024-03-07T04:42:48;24.30;31.20
52973;DHT22;38837;48.916;2.336;2024-03-07T04:44:54;24.30;31.10
52973;DHT22;38837;48.916;2.336;2024-03-07T04:46:57;24.40;31.00
52973;DHT22;38837;48.916;2.336;2024-03-07T04:48:59;24.50;31.00
52973;DHT22;38837;48.916;2.336;2024-03-07T04:51:01;24.50;31.00
52973;DHT22;38837;48.916;2.336;2024-03-07T04:53:03;24.50;30.90
52973;DHT22;38837;48.916;2.336;2024-03-07T04:55:09;24.40;30.90
52973;DHT22;38837;48.916;2.336;2024-03-07T04:57:12;24.30;31.00
52973;DHT22;38837;48.916;2.336;2024-03-07T04:59:15;24.30;31.00
52973;DHT22;38837;48.916;2.336;2024-03-07T05:01:18;24.30;31.00
52973;DHT22;38837;48.916;2.336;2024-03-07T05:03:20;24.20;31.60
52973;DHT22;38837;48.916;2.336;2024-03-07T05:05:23;24.20;31.10
52973;DHT22;38837;48.916;2.336;2024-03-07T05:07:27;24.30;31.10
52973;DHT22;38837;48.916;2.336;2024-03-07T05:09:29;24.30;31.10
52973;DHT22;38837;48.916;2.336;2024-03-07T05:11:31;24.30;30.90
52973;DHT22;38837;48.916;2.336;2024-03-07T05:13:34;24.40;30.90
52973;DHT22;38837;48.916;2.336;2024-03-07T05:15:36;24.40;30.90
52973;DHT22;38837;48.916;2.336;2024-03-07T05:17:41;24.40;30.80
52973;DHT22;38837;48.916;2.336;2024-03-07T05:19:45;24.40;30.80
52973;DHT22;38837;48.916;2.336;2024-03-07T05:21:47;24.30;30.90
52973;DHT22;38837;48.916;2.336;2024-03-07T05:23:49;24.30;30.90
52973;DHT22;38837;48.916;2.336;2024-03-07T05:25:51;24.20;30.90
52973;DHT22;38837;48.916;2.336;2024-03-07T05:27:53;24.20;31.00
52973;DHT22;38837;48.916;2.336;2024-03-07T05:29:55;24.20;31.00
52973;DHT22;38837;48.916;2.336;2024-03-07T05:32:19;24.20;31.00
52973;DHT22;38837;48.916;2.336;2024-03-07T05:34:22;24.30;30.90
52973;DHT22;38837;48.916;2.336;2024-03-07T05:36:25;24.40;30.90
52973;DHT22;38837;48.916;2.336;2024-03-07T05:38:28;24.40;30.70
52973;DHT22;38837;48.916;2.336;2024-03-07T05:40:30;24.40;30.70
52973;DHT22;38837;48.916;2.336;2024-03-07T05:42:32;24.40;30.70
52973;DHT22;38837;48.916;2.336;2024-03-07T05:44:34;24.30;30.70
52973;DHT22;38837;48.916;2.336;2024-03-07T05:46:40;24.30;30.80
52973;DHT22;38837;48.916;2.336;2024-03-07T05:48:50;24.30;30.80
52973;DHT22;38837;48.916;2.336;2024-03-07T05:50:57;24.20;30.90
52973;DHT22;38837;48.916;2.336;2024-03-07T05:53:00;24.20;31.00
52973;DHT22;38837;48.916;2.336;2024-03-07T05:55:05;24.20;31.00
52973;DHT22;38837;48.916;2.336;2024-03-07T05:57:08;24.30;30.90
52973;DHT22;38837;48.916;2.336;2024-03-07T05:59:10;24.30;30.80
52973;DHT22;38837;48.916;2.336;2024-03-07T06:01:12;24.40;30.70
52973;DHT22;38837;48.916;2.336;2024-03-07T06:03:14;24.40;30.60
52973;DHT22;38837;48.916;2.336;2024-03-07T06:05:17;24.40;30.60
52973;DHT22;38837;48.916;2.336;2024-03-07T06:07:20;24.40;30.50
52973;DHT22;38837;48.916;2.336;2024-03-07T06:09:22;24.30;30.60
52973;DHT22;38837;48.916;2.336;2024-03-07T06:11:25;24.30;30.70
52973;DHT22;38837;48.916;2.336;2024-03-07T06:13:27;24.20;30.80
52973;DHT22;38837;48.916;2.336;2024-03-07T06:15:29;24.20;30.80
52973;DHT22;38837;48.916;2.336;2024-03-07T06:17:30;24.20;30.90
52973;DHT22;38837;48.916;2.336;2024-03-07T06:19:32;24.30;30.80
52973;DHT22;38837;48.916;2.336;2024-03-07T06:21:36;24.30;31.30
52973;DHT22;38837;48.916;2.336;2024-03-07T06:23:40;24.40;30.70
52973;DHT22;38837;48.916;2.336;2024-03-07T06:25:42;24.40;30.50
52973;DHT22;38837;48.916;2.336;2024-03-07T06:27:53;24.40;30.70
52973;DHT22;38837;48.916;2.336;2024-03-07T06:29:55;24.40;30.50
52973;DHT22;38837;48.916;2.336;2024-03-07T06:31:57;24.30;30.50
52973;DHT22;38837;48.916;2.336;2024-03-07T06:34:00;24.20;30.60
52973;DHT22;38837;48.916;2.336;2024-03-07T06:36:02;24.20;30.70
52973;DHT22;38837;48.916;2.336;2024-03-07T06:38:05;24.10;31.30
52973;DHT22;38837;48.916;2.336;2024-03-07T06:40:08;24.10;30.90
52973;DHT22;38837;48.916;2.336;2024-03-07T06:42:11;24.20;30.80
52973;DHT22;38837;48.916;2.336;2024-03-07T06:44:13;24.30;30.80
52973;DHT22;38837;48.916;2.336;2024-03-07T06:46:16;24.30;30.60
52973;DHT22;38837;48.916;2.336;2024-03-07T06:48:17;24.30;30.50
52973;DHT22;38837;48.916;2.336;2024-03-07T06:50:19;24.40;30.40
52973;DHT22;38837;48.916;2.336;2024-03-07T06:52:37;24.40;30.40
52973;DHT22;38837;48.916;2.336;2024-03-07T06:54:39;24.40;30.40
52973;DHT22;38837;48.916;2.336;2024-03-07T06:56:41;24.30;30.50
52973;DHT22;38837;48.916;2.336;2024-03-07T06:58:45;24.30;30.60
52973;DHT22;38837;48.916;2.336;2024-03-07T07:00:48;24.20;30.60
52973;DHT22;38837;48.916;2.336;2024-03-07T07:02:49;24.20;30.70
52973;DHT22;38837;48.916;2.336;2024-03-07T07:04:52;24.20;30.80
52973;DHT22;38837;48.916;2.336;2024-03-07T07:06:54;24.20;30.70
52973;DHT22;38837;48.916;2.336;2024-03-07T07:08:56;24.30;30.60
52973;DHT22;38837;48.916;2.336;2024-03-07T07:11:01;24.30;30.40
52973;DHT22;38837;48.916;2.336;2024-03-07T07:13:05;24.40;30.40
52973;DHT22;38837;48.916;2.336;2024-03-07T07:15:08;24.40;30.30
52973;DHT22;38837;48.916;2.336;2024-03-07T07:17:10;24.40;30.20
52973;DHT22;38837;48.916;2.336;2024-03-07T07:19:14;24.40;30.40
52973;DHT22;38837;48.916;2.336;2024-03-07T07:21:16;24.30;30.40
52973;DHT22;38837;48.916;2.336;2024-03-07T07:23:18;24.30;30.50
52973;DHT22;38837;48.916;2.336;2024-03-07T07:25:21;24.20;30.50
52973;DHT22;38837;48.916;2.336;2024-03-07T07:27:23;24.20;30.60
52973;DHT22;38837;48.916;2.336;2024-03-07T07:29:25;24.20;30.60
52973;DHT22;38837;48.916;2.336;2024-03-07T07:31:28;24.20;30.60
52973;DHT22;38837;48.916;2.336;2024-03-07T07:33:30;24.30;31.10
52973;DHT22;38837;48.916;2.336;2024-03-07T07:35:33;24.40;30.40
52973;DHT22;38837;48.916;2.336;2024-03-07T07:37:36;24.50;30.40
52973;DHT22;38837;48.916;2.336;2024-03-07T07:39:38;24.50;30.30
52973;DHT22;38837;48.916;2.336;2024-03-07T07:41:40;24.50;30.30
52973;DHT22;38837;48.916;2.336;2024-03-07T07:43:42;24.40;30.20
52973;DHT22;38837;48.916;2.336;2024-03-07T07:45:45;24.40;30.30
52973;DHT22;38837;48.916;2.336;2024-03-07T07:47:48;24.30;30.30
52973;DHT22;38837;48.916;2.336;2024-03-07T07:49:51;24.30;30.40
52973;DHT22;38837;48.916;2.336;2024-03-07T07:51:52;24.30;30.50
52973;DHT22;38837;48.916;2.336;2024-03-07T07:53:55;24.30;30.40
52973;DHT22;38837;48.916;2.336;2024-03-07T07:55:58;24.40;30.40
52973;DHT22;38837;48.916;2.336;2024-03-07T07:58:00;24.50;30.40
52973;DHT22;38837;48.916;2.336;2024-03-07T08:00:06;24.50;30.20
52973;DHT22;38837;48.916;2.336;2024-03-07T08:02:10;24.60;30.20
52973;DHT22;38837;48.916;2.336;2024-03-07T08:04:12;24.60;30.20
52973;DHT22;38837;48.916;2.336;2024-03-07T08:06:14;24.60;30.10
52973;DHT22;38837;48.916;2.336;2024-03-07T08:08:16;24.50;30.10
52973;DHT22;38837;48.916;2.336;2024-03-07T08:10:24;24.40;30.10
52973;DHT22;38837;48.916;2.336;2024-03-07T08:12:26;24.40;30.30
52973;DHT22;38837;48.916;2.336;2024-03-07T08:14:28;24.40;30.40
52973;DHT22;38837;48.916;2.336;2024-03-07T08:16:31;24.40;30.40
52973;DHT22;38837;48.916;2.336;2024-03-07T08:18:33;24.40;30.30
52973;DHT22;38837;48.916;2.336;2024-03-07T08:20:35;24.50;30.30
52973;DHT22;38837;48.916;2.336;2024-03-07T08:22:38;24.60;30.20
52973;DHT22;38837;48.916;2.336;2024-03-07T08:24:43;24.60;30.10
52973;DHT22;38837;48.916;2.336;2024-03-07T08:26:45;24.60;30.00
52973;DHT22;38837;48.916;2.336;2024-03-07T08:28:48;24.60;30.00
52973;DHT22;38837;48.916;2.336;2024-03-07T08:30:50;24.60;30.10
52973;DHT22;38837;48.916;2.336;2024-03-07T08:32:54;24.60;30.20
52973;DHT22;38837;48.916;2.336;2024-03-07T08:34:57;24.50;30.20
52973;DHT22;38837;48.916;2.336;2024-03-07T08:36:58;24.50;30.30
52973;DHT22;38837;48.916;2.336;2024-03-07T08:39:00;24.50;30.40
52973;DHT22;38837;48.916;2.336;2024-03-07T08:41:03;24.50;30.30
52973;DHT22;38837;48.916;2.336;2024-03-07T08:43:05;24.50;30.20
52973;DHT22;38837;48.916;2.336;2024-03-07T08:45:09;24.60;30.20
52973;DHT22;38837;48.916;2.336;2024-03-07T08:47:12;24.60;30.70
52973;DHT22;38837;48.916;2.336;2024-03-07T08:49:14;24.70;30.10
52973;DHT22;38837;48.916;2.336;2024-03-07T08:51:18;24.60;30.50
52973;DHT22;38837;48.916;2.336;2024-03-07T08:53:20;24.60;30.00
52973;DHT22;38837;48.916;2.336;2024-03-07T08:55:23;24.60;30.00
52973;DHT22;38837;48.916;2.336;2024-03-07T08:57:28;24.60;30.00
52973;DHT22;38837;48.916;2.336;2024-03-07T08:59:30;24.60;30.20
52973;DHT22;38837;48.916;2.336;2024-03-07T09:01:35;24.60;30.20
52973;DHT22;38837;48.916;2.336;2024-03-07T09:03:37;24.70;30.10
52973;DHT22;38837;48.916;2.336;2024-03-07T09:05:40;24.80;30.00
52973;DHT22;38837;48.916;2.336;2024-03-07T09:07:43;24.90;30.10
52973;DHT22;38837;48.916;2.336;2024-03-07T09:09:44;25.00;30.00
52973;DHT22;38837;48.916;2.336;2024-03-07T09:11:47;25.00;29.90
52973;DHT22;38837;48.916;2.336;2024-03-07T09:13:49;25.00;30.00
52973;DHT22;38837;48.916;2.336;2024-03-07T09:15:51;25.20;29.90
52973;DHT22;38837;48.916;2.336;2024-03-07T09:17:53;25.30;30.00
52973;DHT22;38837;48.916;2.336;2024-03-07T09:19:55;25.40;29.90
52973;DHT22;38837;48.916;2.336;2024-03-07T09:21:57;25.40;29.70
52973;DHT22;38837;48.916;2.336;2024-03-07T09:23:59;25.30;29.90
52973;DHT22;38837;48.916;2.336;2024-03-07T09:26:01;25.10;29.90
52973;DHT22;38837;48.916;2.336;2024-03-07T09:28:04;25.10;29.90
52973;DHT22;38837;48.916;2.336;2024-03-07T09:30:08;25.10;30.00
52973;DHT22;38837;48.916;2.336;2024-03-07T09:32:14;25.10;29.80
52973;DHT22;38837;48.916;2.336;2024-03-07T09:34:16;25.10;29.80
52973;DHT22;38837;48.916;2.336;2024-03-07T09:36:18;25.10;30.00
52973;DHT22;38837;48.916;2.336;2024-03-07T09:38:20;25.20;29.90
52973;DHT22;38837;48.916;2.336;2024-03-07T09:40:22;25.30;29.90
52973;DHT22;38837;48.916;2.336;2024-03-07T09:42:29;25.30;29.80
52973;DHT22;38837;48.916;2.336;2024-03-07T09:44:33;25.40;29.80
52973;DHT22;38837;48.916;2.336;2024-03-07T09:46:36;25.40;29.70
52973;DHT22;38837;48.916;2.336;2024-03-07T09:48:38;25.40;29.70
52973;DHT22;38837;48.916;2.336;2024-03-07T09:50:46;25.40;29.70
52973;DHT22;38837;48.916;2.336;2024-03-07T09:52:52;25.50;29.80
52973;DHT22;38837;48.916;2.336;2024-03-07T09:54:56;25.70;29.60
52973;DHT22;38837;48.916;2.336;2024-03-07T09:57:02;25.50;29.80
52973;DHT22;38837;48.916;2.336;2024-03-07T09:59:05;25.50;29.80
52973;DHT22;38837;48.916;2.336;2024-03-07T10:01:07;25.60;29.90
52973;DHT22;38837;48.916;2.336;2024-03-07T10:03:12;25.50;30.00
52973;DHT22;38837;48.916;2.336;2024-03-07T10:05:17;25.60;29.90
52973;DHT22;38837;48.916;2.336;2024-03-07T10:07:21;25.60;29.70
52973;DHT22;38837;48.916;2.336;2024-03-07T10:09:24;25.60;29.70
52973;DHT22;38837;48.916;2.336;2024-03-07T10:11:26;25.70;29.70
52973;DHT22;38837;48.916;2.336;2024-03-07T10:13:28;25.80;29.80
52973;DHT22;38837;48.916;2.336;2024-03-07T10:15:31;25.70;29.80
52973;DHT22;38837;48.916;2.336;2024-03-07T10:17:33;25.70;29.70
52973;DHT22;38837;48.916;2.336;2024-03-07T10:19:36;25.70;29.50
52973;DHT22;38837;48.916;2.336;2024-03-07T10:21:38;25.80;29.60
52973;DHT22;38837;48.916;2.336;2024-03-07T10:23:42;25.80;29.70
52973;DHT22;38837;48.916;2.336;2024-03-07T10:25:51;25.60;29.70
52973;DHT22;38837;48.916;2.336;2024-03-07T10:27:56;25.60;29.80
52973;DHT22;38837;48.916;2.336;2024-03-07T10:29:59;25.70;30.00
52973;DHT22;38837;48.916;2.336;2024-03-07T10:32:11;25.70;29.80
52973;DHT22;38837;48.916;2.336;2024-03-07T10:34:14;25.70;29.70
52973;DHT22;38837;48.916;2.336;2024-03-07T10:36:17;25.80;30.00
52973;DHT22;38837;48.916;2.336;2024-03-07T10:38:19;25.80;29.80
52973;DHT22;38837;48.916;2.336;2024-03-07T10:40:23;26.00;29.80
52973;DHT22;38837;48.916;2.336;2024-03-07T10:42:29;26.10;29.80
52973;DHT22;38837;48.916;2.336;2024-03-07T10:44:32;26.10;30.00
52973;DHT22;38837;48.916;2.336;2024-03-07T10:46:41;26.10;29.60
52973;DHT22;38837;48.916;2.336;2024-03-07T10:48:46;26.20;29.60
52973;DHT22;38837;48.916;2.336;2024-03-07T10:51:13;26.20;29.60
52973;DHT22;38837;48.916;2.336;2024-03-07T10:54:24;26.20;29.90
52973;DHT22;38837;48.916;2.336;2024-03-07T11:01:10;25.80;30.50
52973;DHT22;38837;48.916;2.336;2024-03-07T11:03:14;25.60;30.60
52973;DHT22;38837;48.916;2.336;2024-03-07T11:05:17;25.70;30.80
52973;DHT22;38837;48.916;2.336;2024-03-07T11:07:20;25.60;30.60
52973;DHT22;38837;48.916;2.336;2024-03-07T11:09:23;25.50;30.70
52973;DHT22;38837;48.916;2.336;2024-03-07T11:11:25;25.30;30.80
52973;DHT22;38837;48.916;2.336;2024-03-07T11:13:33;25.20;30.80
52973;DHT22;38837;48.916;2.336;2024-03-07T11:15:35;25.10;31.30
52973;DHT22;38837;48.916;2.336;2024-03-07T11:17:38;24.80;31.60
52973;DHT22;38837;48.916;2.336;2024-03-07T11:19:41;24.90;31.10
52973;DHT22;38837;48.916;2.336;2024-03-07T11:21:44;24.90;30.70
52973;DHT22;38837;48.916;2.336;2024-03-07T11:23:46;24.90;31.00
52973;DHT22;38837;48.916;2.336;2024-03-07T11:25:48;25.00;30.70
52973;DHT22;38837;48.916;2.336;2024-03-07T11:27:56;25.10;31.00
52973;DHT22;38837;48.916;2.336;2024-03-07T11:30:07;25.00;30.70
52973;DHT22;38837;48.916;2.336;2024-03-07T11:32:11;24.80;30.90
52973;DHT22;38837;48.916;2.336;2024-03-07T11:34:14;24.50;30.80
52973;DHT22;38837;48.916;2.336;2024-03-07T11:36:43;24.60;31.40
52973;DHT22;38837;48.916;2.336;2024-03-07T11:38:49;24.80;31.30
52973;DHT22;38837;48.916;2.336;2024-03-07T11:40:51;24.70;31.40
52973;DHT22;38837;48.916;2.336;2024-03-07T11:42:54;24.60;31.10
52973;DHT22;38837;48.916;2.336;2024-03-07T11:45:02;24.60;31.20
52973;DHT22;38837;48.916;2.336;2024-03-07T11:47:07;24.70;31.20
52973;DHT22;38837;48.916;2.336;2024-03-07T11:49:13;24.80;31.20
52973;DHT22;38837;48.916;2.336;2024-03-07T11:51:20;24.80;31.10
52973;DHT22;38837;48.916;2.336;2024-03-07T11:53:27;25.10;30.90
52973;DHT22;38837;48.916;2.336;2024-03-07T11:55:29;25.10;30.80
52973;DHT22;38837;48.916;2.336;2024-03-07T11:57:31;24.90;30.80
52973;DHT22;38837;48.916;2.336;2024-03-07T11:59:36;25.00;30.60
52973;DHT22;38837;48.916;2.336;2024-03-07T12:01:39;24.80;30.60
52973;DHT22;38837;48.916;2.336;2024-03-07T12:03:44;24.90;30.50
52973;DHT22;38837;48.916;2.336;2024-03-07T12:05:50;25.00;30.70
52973;DHT22;38837;48.916;2.336;2024-03-07T12:07:56;25.00;30.60
52973;DHT22;38837;48.916;2.336;2024-03-07T12:10:02;25.00;30.60
52973;DHT22;38837;48.916;2.336;2024-03-07T12:12:07;24.90;31.00
52973;DHT22;38837;48.916;2.336;2024-03-07T12:14:11;24.90;30.90
52973;DHT22;38837;48.916;2.336;2024-03-07T12:16:13;25.10;30.60
52973;DHT22;38837;48.916;2.336;2024-03-07T12:18:15;25.10;30.40
52973;DHT22;38837;48.916;2.336;2024-03-07T12:20:19;25.20;30.40
52973;DHT22;38837;48.916;2.336;2024-03-07T12:22:29;25.20;30.50
52973;DHT22;38837;48.916;2.336;2024-03-07T12:24:32;25.20;30.40
52973;DHT22;38837;48.916;2.336;2024-03-07T12:26:35;25.30;30.50
52973;DHT22;38837;48.916;2.336;2024-03-07T12:28:39;25.20;30.40
52973;DHT22;38837;48.916;2.336;2024-03-07T12:30:51;25.10;30.20
52973;DHT22;38837;48.916;2.336;2024-03-07T12:32:53;25.10;30.60
52973;DHT22;38837;48.916;2.336;2024-03-07T12:34:55;25.10;30.80
52973;DHT22;38837;48.916;2.336;2024-03-07T12:36:57;25.20;30.80
52973;DHT22;38837;48.916;2.336;2024-03-07T12:39:02;25.20;30.30
52973;DHT22;38837;48.916;2.336;2024-03-07T12:41:11;25.20;30.70
52973;DHT22;38837;48.916;2.336;2024-03-07T12:43:19;25.30;30.60
52973;DHT22;38837;48.916;2.336;2024-03-07T12:45:22;25.20;30.20
52973;DHT22;38837;48.916;2.336;2024-03-07T12:47:24;25.10;30.90
52973;DHT22;38837;48.916;2.336;2024-03-07T12:49:27;25.10;31.10
52973;DHT22;38837;48.916;2.336;2024-03-07T12:51:29;25.10;31.40
52973;DHT22;38837;48.916;2.336;2024-03-07T12:53:31;25.40;31.90
52973;DHT22;38837;48.916;2.336;2024-03-07T12:55:40;25.60;31.80
52973;DHT22;38837;48.916;2.336;2024-03-07T12:57:43;25.60;31.50
52973;DHT22;38837;48.916;2.336;2024-03-07T12:59:46;25.80;31.70
52973;DHT22;38837;48.916;2.336;2024-03-07T13:01:48;25.90;31.10
52973;DHT22;38837;48.916;2.336;2024-03-07T13:03:51;25.90;30.80